sensor_id;sensor_type;location;lat;lon;timestamp;pressure;altitude;pressure_sealevel;temperature;humidity
56241;BME280;42155;53.096;23.226;2022-11-15T00:00:14;100410.09;;;6.94;81.56
56241;BME280;42155;53.096;23.226;2022-11-15T00:02:14;100401.66;;;6.87;82.23
56241;BME280;42155;53.096;23.226;2022-11-15T00:04:15;100357.22;;;6.66;81.95
56241;BME280;42155;53.096;23.226;2022-11-15T00:06:15;100398.69;;;6.94;82.08
56241;BME280;42155;53.096;23.226;2022-11-15T00:08:15;100396.09;;;6.92;82.07
56241;BME280;42155;53.096;23.226;2022-11-15T00:10:16;100386.78;;;6.86;82.33
56241;BME280;42155;53.096;23.226;2022-11-15T00:12:16;100394.25;;;6.94;82.00
56241;BME280;42155;53.096;23.226;2022-11-15T00:14:16;100394.91;;;6.98;82.09
56241;BME280;42155;53.096;23.226;2022-11-15T00:16:17;100382.91;;;6.92;81.98
56241;BME280;42155;53.096;23.226;2022-11-15T00:18:18;100375.56;;;6.97;81.73
56241;BME280;42155;53.096;23.226;2022-11-15T00:20:18;100378.41;;;6.94;81.71
56241;BME280;42155;53.096;23.226;2022-11-15T00:22:19;100367.34;;;6.87;82.24
56241;BME280;42155;53.096;23.226;2022-11-15T00:24:19;100367.66;;;6.97;82.11
56241;BME280;42155;53.096;23.226;2022-11-15T00:26:19;100373.78;;;6.98;82.14
56241;BME280;42155;53.096;23.226;2022-11-15T00:28:19;100357.31;;;6.94;82.20
56241;BME280;42155;53.096;23.226;2022-11-15T00:30:20;100372.09;;;6.97;81.95
56241;BME280;42155;53.096;23.226;2022-11-15T00:32:20;100313.88;;;6.70;81.73
56241;BME280;42155;53.096;23.226;2022-11-15T00:34:20;100364.84;;;7.00;81.66
56241;BME280;42155;53.096;23.226;2022-11-15T00:36:21;100363.72;;;7.04;81.96
56241;BME280;42155;53.096;23.226;2022-11-15T00:38:21;100360.25;;;7.04;81.97
56241;BME280;42155;53.096;23.226;2022-11-15T00:40:21;100346.38;;;7.00;81.46
56241;BME280;42155;53.096;23.226;2022-11-15T00:42:22;100349.75;;;7.02;82.22
56241;BME280;42155;53.096;23.226;2022-11-15T00:44:22;100340.16;;;7.01;81.78
56241;BME280;42155;53.096;23.226;2022-11-15T00:46:22;100351.09;;;7.09;81.94
56241;BME280;42155;53.096;23.226;2022-11-15T00:48:23;100347.72;;;7.07;81.67
56241;BME280;42155;53.096;23.226;2022-11-15T00:50:23;100338.94;;;7.07;81.50
56241;BME280;42155;53.096;23.226;2022-11-15T00:52:23;100342.44;;;7.07;81.96
56241;BME280;42155;53.096;23.226;2022-11-15T00:54:24;100334.59;;;7.06;82.02
56241;BME280;42155;53.096;23.226;2022-11-15T00:56:24;100332.81;;;7.06;82.00
56241;BME280;42155;53.096;23.226;2022-11-15T00:58:24;100335.28;;;7.09;81.66
56241;BME280;42155;53.096;23.226;2022-11-15T01:00:25;100332.63;;;7.09;82.03
56241;BME280;42155;53.096;23.226;2022-11-15T01:02:25;100324.63;;;7.11;81.83
56241;BME280;42155;53.096;23.226;2022-11-15T01:04:25;100327.25;;;7.11;81.62
56241;BME280;42155;53.096;23.226;2022-11-15T01:06:26;100278.72;;;6.85;81.66
56241;BME280;42155;53.096;23.226;2022-11-15T01:08:26;100326.25;;;7.13;81.27
56241;BME280;42155;53.096;23.226;2022-11-15T01:10:27;100320.13;;;7.13;81.37
56241;BME280;42155;53.096;23.226;2022-11-15T01:12:27;100321.81;;;7.14;81.77
56241;BME280;42155;53.096;23.226;2022-11-15T01:14:27;100309.91;;;7.07;81.85
56241;BME280;42155;53.096;23.226;2022-11-15T01:16:28;100300.78;;;6.98;81.31
56241;BME280;42155;53.096;23.226;2022-11-15T01:18:28;100317.25;;;7.16;81.44
56241;BME280;42155;53.096;23.226;2022-11-15T01:20:28;100315.50;;;7.17;81.72
56241;BME280;42155;53.096;23.226;2022-11-15T01:22:29;100313.78;;;7.15;81.04
56241;BME280;42155;53.096;23.226;2022-11-15T01:24:29;100302.19;;;7.18;81.70
56241;BME280;42155;53.096;23.226;2022-11-15T01:26:29;100225.72;;;6.74;81.56
56241;BME280;42155;53.096;23.226;2022-11-15T01:28:34;100294.28;;;7.18;81.78
56241;BME280;42155;53.096;23.226;2022-11-15T01:30:35;100277.41;;;7.06;81.32
56241;BME280;42155;53.096;23.226;2022-11-15T01:32:36;100284.84;;;7.14;81.48
56241;BME280;42155;53.096;23.226;2022-11-15T01:34:36;100289.13;;;7.17;81.76
56241;BME280;42155;53.096;23.226;2022-11-15T01:36:36;100274.28;;;7.14;81.77
56241;BME280;42155;53.096;23.226;2022-11-15T01:38:37;100234.44;;;6.90;81.69
56241;BME280;42155;53.096;23.226;2022-11-15T01:40:37;100279.19;;;7.20;81.33
56241;BME280;42155;53.096;23.226;2022-11-15T01:42:37;100259.69;;;7.08;81.32
56241;BME280;42155;53.096;23.226;2022-11-15T01:44:47;100276.66;;;7.19;81.41
56241;BME280;42155;53.096;23.226;2022-11-15T01:46:48;100230.66;;;6.94;81.18
56241;BME280;42155;53.096;23.226;2022-11-15T01:48:51;100260.16;;;7.15;81.62
56241;BME280;42155;53.096;23.226;2022-11-15T01:50:52;100265.06;;;7.21;81.08
56241;BME280;42155;53.096;23.226;2022-11-15T01:52:52;100255.66;;;7.17;81.32
56241;BME280;42155;53.096;23.226;2022-11-15T01:55:07;100259.69;;;7.23;81.00
56241;BME280;42155;53.096;23.226;2022-11-15T01:57:09;100253.84;;;7.18;81.63
56241;BME280;42155;53.096;23.226;2022-11-15T01:59:12;100239.88;;;7.15;81.70
56241;BME280;42155;53.096;23.226;2022-11-15T02:01:13;100248.34;;;7.21;81.53
56241;BME280;42155;53.096;23.226;2022-11-15T02:03:13;100248.94;;;7.26;81.23
56241;BME280;42155;53.096;23.226;2022-11-15T02:05:14;100243.69;;;7.26;81.12
56241;BME280;42155;53.096;23.226;2022-11-15T02:07:18;100242.72;;;7.27;81.03
56241;BME280;42155;53.096;23.226;2022-11-15T02:09:19;100248.00;;;7.27;81.34
56241;BME280;42155;53.096;23.226;2022-11-15T02:11:20;100241.22;;;7.23;81.18
56241;BME280;42155;53.096;23.226;2022-11-15T02:13:20;100217.75;;;7.18;81.19
56241;BME280;42155;53.096;23.226;2022-11-15T02:15:21;100215.56;;;7.10;81.02
56241;BME280;42155;53.096;23.226;2022-11-15T02:27:02;100235.19;;;7.35;80.29
56241;BME280;42155;53.096;23.226;2022-11-15T02:29:11;100224.03;;;7.30;80.73
56241;BME280;42155;53.096;23.226;2022-11-15T02:38:33;100214.06;;;7.35;79.87
56241;BME280;42155;53.096;23.226;2022-11-15T02:42:53;100215.75;;;7.36;79.99
56241;BME280;42155;53.096;23.226;2022-11-15T02:44:56;100204.34;;;7.35;80.12
56241;BME280;42155;53.096;23.226;2022-11-15T02:47:01;100202.53;;;7.36;79.69
56241;BME280;42155;53.096;23.226;2022-11-15T02:49:02;100184.53;;;7.28;79.89
56241;BME280;42155;53.096;23.226;2022-11-15T02:51:03;100187.84;;;7.32;79.19
56241;BME280;42155;53.096;23.226;2022-11-15T02:53:04;100187.72;;;7.33;79.55
56241;BME280;42155;53.096;23.226;2022-11-15T02:55:04;100173.03;;;7.29;79.46
56241;BME280;42155;53.096;23.226;2022-11-15T02:57:14;100184.25;;;7.33;78.88
56241;BME280;42155;53.096;23.226;2022-11-15T03:01:42;100155.34;;;7.17;78.65
56241;BME280;42155;53.096;23.226;2022-11-15T03:06:27;100165.09;;;7.29;78.56
56241;BME280;42155;53.096;23.226;2022-11-15T03:08:32;100169.47;;;7.30;78.15
56241;BME280;42155;53.096;23.226;2022-11-15T03:11:03;100166.91;;;7.29;77.88
56241;BME280;42155;53.096;23.226;2022-11-15T03:15:23;100161.84;;;7.26;78.38
56241;BME280;42155;53.096;23.226;2022-11-15T03:17:35;100160.22;;;7.23;78.08
56241;BME280;42155;53.096;23.226;2022-11-15T03:19:57;100153.16;;;7.24;77.83
56241;BME280;42155;53.096;23.226;2022-11-15T03:22:00;100136.88;;;7.17;78.25
56241;BME280;42155;53.096;23.226;2022-11-15T03:24:03;100139.97;;;7.24;77.72
56241;BME280;42155;53.096;23.226;2022-11-15T03:26:09;100141.75;;;7.23;77.84
56241;BME280;42155;53.096;23.226;2022-11-15T03:28:15;100139.22;;;7.22;77.88
56241;BME280;42155;53.096;23.226;2022-11-15T03:30:17;100117.84;;;7.12;77.33
56241;BME280;42155;53.096;23.226;2022-11-15T03:32:24;100127.81;;;7.21;77.66
56241;BME280;42155;53.096;23.226;2022-11-15T03:34:40;100111.63;;;7.13;77.23
56241;BME280;42155;53.096;23.226;2022-11-15T03:36:42;100116.38;;;7.21;77.20
56241;BME280;42155;53.096;23.226;2022-11-15T03:38:44;100122.97;;;7.28;77.60
56241;BME280;42155;53.096;23.226;2022-11-15T03:40:49;100122.13;;;7.27;77.40
56241;BME280;42155;53.096;23.226;2022-11-15T03:43:04;100116.84;;;7.27;77.35
56241;BME280;42155;53.096;23.226;2022-11-15T03:45:19;100115.06;;;7.28;77.07
56241;BME280;42155;53.096;23.226;2022-11-15T03:47:34;100095.28;;;7.21;77.06
56241;BME280;42155;53.096;23.226;2022-11-15T03:49:38;100105.53;;;7.25;77.51
56241;BME280;42155;53.096;23.226;2022-11-15T03:51:41;100094.44;;;7.20;77.26
56241;BME280;42155;53.096;23.226;2022-11-15T03:53:42;100091.06;;;7.18;77.44
56241;BME280;42155;53.096;23.226;2022-11-15T03:55:42;100081.75;;;7.12;77.17
56241;BME280;42155;53.096;23.226;2022-11-15T03:57:43;100077.38;;;7.11;77.33
56241;BME280;42155;53.096;23.226;2022-11-15T03:59:43;100080.03;;;7.11;76.92
56241;BME280;42155;53.096;23.226;2022-11-15T04:01:43;100090.22;;;7.18;77.37
56241;BME280;42155;53.096;23.226;2022-11-15T04:03:44;100093.69;;;7.18;77.50
56241;BME280;42155;53.096;23.226;2022-11-15T04:05:44;100086.63;;;7.19;76.94
56241;BME280;42155;53.096;23.226;2022-11-15T04:07:45;100091.16;;;7.17;77.43
56241;BME280;42155;53.096;23.226;2022-11-15T04:09:45;100077.97;;;7.17;77.07
56241;BME280;42155;53.096;23.226;2022-11-15T04:11:45;100078.81;;;7.17;77.11
56241;BME280;42155;53.096;23.226;2022-11-15T04:13:45;100084.72;;;7.21;77.41
56241;BME280;42155;53.096;23.226;2022-11-15T04:15:46;100073.53;;;7.17;76.94
56241;BME280;42155;53.096;23.226;2022-11-15T04:17:52;100024.88;;;6.94;76.75
56241;BME280;42155;53.096;23.226;2022-11-15T04:19:52;100060.97;;;7.21;77.32
56241;BME280;42155;53.096;23.226;2022-11-15T04:21:53;100054.75;;;7.22;76.94
56241;BME280;42155;53.096;23.226;2022-11-15T04:23:53;100051.56;;;7.17;76.87
56241;BME280;42155;53.096;23.226;2022-11-15T04:25:55;100054.34;;;7.28;76.92
56241;BME280;42155;53.096;23.226;2022-11-15T04:27:56;100055.38;;;7.25;77.20
56241;BME280;42155;53.096;23.226;2022-11-15T04:29:56;100052.84;;;7.24;76.90
56241;BME280;42155;53.096;23.226;2022-11-15T04:31:57;100049.38;;;7.23;76.82
56241;BME280;42155;53.096;23.226;2022-11-15T04:33:57;100051.81;;;7.26;77.32
56241;BME280;42155;53.096;23.226;2022-11-15T04:35:57;100027.47;;;7.08;77.23
56241;BME280;42155;53.096;23.226;2022-11-15T04:37:58;100035.09;;;7.13;77.00
56241;BME280;42155;53.096;23.226;2022-11-15T04:39:58;100053.50;;;7.27;77.46
56241;BME280;42155;53.096;23.226;2022-11-15T04:41:59;100050.03;;;7.27;76.89
56241;BME280;42155;53.096;23.226;2022-11-15T04:43:59;100049.06;;;7.28;77.45
56241;BME280;42155;53.096;23.226;2022-11-15T04:46:00;100011.09;;;7.03;76.87
56241;BME280;42155;53.096;23.226;2022-11-15T04:48:00;100051.53;;;7.31;76.82
56241;BME280;42155;53.096;23.226;2022-11-15T04:50:00;100040.00;;;7.32;77.09
56241;BME280;42155;53.096;23.226;2022-11-15T04:52:01;100031.72;;;7.24;77.23
56241;BME280;42155;53.096;23.226;2022-11-15T04:54:01;100049.72;;;7.31;76.73
56241;BME280;42155;53.096;23.226;2022-11-15T04:56:02;100047.09;;;7.31;77.55
56241;BME280;42155;53.096;23.226;2022-11-15T04:58:02;100011.41;;;7.11;77.26
56241;BME280;42155;53.096;23.226;2022-11-15T05:00:05;100047.16;;;7.30;76.97
56241;BME280;42155;53.096;23.226;2022-11-15T05:02:06;100018.19;;;7.15;77.48
56241;BME280;42155;53.096;23.226;2022-11-15T05:04:07;100040.41;;;7.26;77.11
56241;BME280;42155;53.096;23.226;2022-11-15T05:06:07;100039.53;;;7.25;77.64
56241;BME280;42155;53.096;23.226;2022-11-15T05:08:07;100044.75;;;7.27;77.49
56241;BME280;42155;53.096;23.226;2022-11-15T05:10:08;100040.50;;;7.24;77.65
56241;BME280;42155;53.096;23.226;2022-11-15T05:12:09;100038.16;;;7.20;77.12
56241;BME280;42155;53.096;23.226;2022-11-15T05:14:09;100046.91;;;7.20;77.46
56241;BME280;42155;53.096;23.226;2022-11-15T05:16:09;100034.13;;;7.14;77.69
56241;BME280;42155;53.096;23.226;2022-11-15T05:18:10;100026.41;;;7.11;77.86
56241;BME280;42155;53.096;23.226;2022-11-15T05:20:10;100023.88;;;7.09;77.19
56241;BME280;42155;53.096;23.226;2022-11-15T05:22:11;100027.06;;;7.14;77.18
56241;BME280;42155;53.096;23.226;2022-11-15T05:24:11;100024.06;;;7.06;77.67
56241;BME280;42155;53.096;23.226;2022-11-15T05:26:12;100020.59;;;7.06;77.45
56241;BME280;42155;53.096;23.226;2022-11-15T05:28:12;100020.50;;;7.07;77.14
56241;BME280;42155;53.096;23.226;2022-11-15T05:30:13;100003.16;;;7.03;77.66
56241;BME280;42155;53.096;23.226;2022-11-15T05:32:13;100001.88;;;6.96;77.49
56241;BME280;42155;53.096;23.226;2022-11-15T05:34:14;100028.72;;;7.03;77.86
56241;BME280;42155;53.096;23.226;2022-11-15T05:36:34;100008.81;;;6.97;77.45
56241;BME280;42155;53.096;23.226;2022-11-15T05:38:35;100004.16;;;6.88;77.56
56241;BME280;42155;53.096;23.226;2022-11-15T05:40:36;100017.59;;;6.98;77.82
56241;BME280;42155;53.096;23.226;2022-11-15T05:42:36;100014.31;;;6.94;77.61
56241;BME280;42155;53.096;23.226;2022-11-15T05:44:39;100012.81;;;6.90;77.73
56241;BME280;42155;53.096;23.226;2022-11-15T05:46:41;100016.13;;;6.94;77.56
56241;BME280;42155;53.096;23.226;2022-11-15T05:48:45;100019.97;;;6.88;77.94
56241;BME280;42155;53.096;23.226;2022-11-15T05:50:48;100011.50;;;6.83;77.63
56241;BME280;42155;53.096;23.226;2022-11-15T05:52:50;100014.91;;;6.85;77.81
56241;BME280;42155;53.096;23.226;2022-11-15T05:54:51;100007.72;;;6.87;77.68
56241;BME280;42155;53.096;23.226;2022-11-15T05:56:52;100012.81;;;6.90;77.82
56241;BME280;42155;53.096;23.226;2022-11-15T05:58:56;100003.22;;;6.89;77.22
56241;BME280;42155;53.096;23.226;2022-11-15T06:00:58;100014.50;;;6.91;77.27
56241;BME280;42155;53.096;23.226;2022-11-15T06:02:59;100000.66;;;6.87;77.60
56241;BME280;42155;53.096;23.226;2022-11-15T06:04:59;99997.38;;;6.84;78.10
56241;BME280;42155;53.096;23.226;2022-11-15T06:06:59;99971.25;;;6.67;77.68
56241;BME280;42155;53.096;23.226;2022-11-15T06:09:00;99961.19;;;6.59;77.77
56241;BME280;42155;53.096;23.226;2022-11-15T06:11:06;100009.72;;;6.83;77.89
56241;BME280;42155;53.096;23.226;2022-11-15T06:13:07;100004.00;;;6.77;77.81
56241;BME280;42155;53.096;23.226;2022-11-15T06:15:07;99998.28;;;6.70;78.21
56241;BME280;42155;53.096;23.226;2022-11-15T06:17:08;100020.78;;;6.76;78.03
56241;BME280;42155;53.096;23.226;2022-11-15T06:19:08;100008.91;;;6.69;78.00
56241;BME280;42155;53.096;23.226;2022-11-15T06:21:09;100006.19;;;6.70;77.48
56241;BME280;42155;53.096;23.226;2022-11-15T06:23:09;100009.56;;;6.72;78.09
56241;BME280;42155;53.096;23.226;2022-11-15T06:25:09;99981.44;;;6.58;77.85
56241;BME280;42155;53.096;23.226;2022-11-15T06:27:11;99999.69;;;6.76;77.48
56241;BME280;42155;53.096;23.226;2022-11-15T06:29:11;100013.06;;;6.73;77.65
56241;BME280;42155;53.096;23.226;2022-11-15T06:31:11;100007.22;;;6.68;77.75
56241;BME280;42155;53.096;23.226;2022-11-15T06:33:12;99993.50;;;6.62;77.66
56241;BME280;42155;53.096;23.226;2022-11-15T06:35:13;99983.22;;;6.58;77.91
56241;BME280;42155;53.096;23.226;2022-11-15T06:37:13;100004.41;;;6.71;77.88
56241;BME280;42155;53.096;23.226;2022-11-15T06:39:14;99998.59;;;6.66;77.71
56241;BME280;42155;53.096;23.226;2022-11-15T06:41:15;100002.69;;;6.70;77.63
56241;BME280;42155;53.096;23.226;2022-11-15T06:43:15;99990.66;;;6.66;77.49
56241;BME280;42155;53.096;23.226;2022-11-15T06:45:15;100005.13;;;6.73;78.06
56241;BME280;42155;53.096;23.226;2022-11-15T06:47:16;99998.75;;;6.62;77.78
56241;BME280;42155;53.096;23.226;2022-11-15T06:49:16;100004.94;;;6.76;77.81
56241;BME280;42155;53.096;23.226;2022-11-15T06:51:16;100010.22;;;6.76;77.33
56241;BME280;42155;53.096;23.226;2022-11-15T06:53:17;99992.34;;;6.67;77.84
56241;BME280;42155;53.096;23.226;2022-11-15T06:55:17;100006.81;;;6.74;77.63
56241;BME280;42155;53.096;23.226;2022-11-15T06:57:17;100002.38;;;6.74;77.73
56241;BME280;42155;53.096;23.226;2022-11-15T06:59:18;100015.41;;;6.77;77.52
56241;BME280;42155;53.096;23.226;2022-11-15T07:01:18;99995.84;;;6.67;77.67
56241;BME280;42155;53.096;23.226;2022-11-15T07:03:18;99956.06;;;6.43;77.88
56241;BME280;42155;53.096;23.226;2022-11-15T07:05:19;100013.19;;;6.84;77.58
56241;BME280;42155;53.096;23.226;2022-11-15T07:07:19;100005.28;;;6.84;77.91
56241;BME280;42155;53.096;23.226;2022-11-15T07:09:19;100004.25;;;6.86;77.71
56241;BME280;42155;53.096;23.226;2022-11-15T07:11:19;99995.69;;;6.83;77.80
56241;BME280;42155;53.096;23.226;2022-11-15T07:13:24;100010.25;;;6.88;77.42
56241;BME280;42155;53.096;23.226;2022-11-15T07:15:25;99996.81;;;6.79;77.39
56241;BME280;42155;53.096;23.226;2022-11-15T07:17:26;100002.75;;;6.82;77.87
56241;BME280;42155;53.096;23.226;2022-11-15T07:19:26;99999.47;;;6.79;77.18
56241;BME280;42155;53.096;23.226;2022-11-15T07:21:26;100008.13;;;6.81;77.98
56241;BME280;42155;53.096;23.226;2022-11-15T07:23:27;100004.75;;;6.79;77.69
56241;BME280;42155;53.096;23.226;2022-11-15T07:25:28;99982.13;;;6.75;77.45
56241;BME280;42155;53.096;23.226;2022-11-15T07:27:28;99951.88;;;6.53;77.51
56241;BME280;42155;53.096;23.226;2022-11-15T07:29:28;99989.84;;;6.78;77.83
56241;BME280;42155;53.096;23.226;2022-11-15T07:31:29;99992.09;;;6.84;77.50
56241;BME280;42155;53.096;23.226;2022-11-15T07:33:29;99937.94;;;6.51;77.97
56241;BME280;42155;53.096;23.226;2022-11-15T07:35:29;99992.00;;;6.85;77.45
56241;BME280;42155;53.096;23.226;2022-11-15T07:37:30;99969.28;;;6.70;77.52
56241;BME280;42155;53.096;23.226;2022-11-15T07:39:30;99985.34;;;6.80;77.40
56241;BME280;42155;53.096;23.226;2022-11-15T07:41:30;99985.13;;;6.83;78.16
56241;BME280;42155;53.096;23.226;2022-11-15T07:43:31;99994.00;;;6.82;77.55
56241;BME280;42155;53.096;23.226;2022-11-15T07:45:31;99959.66;;;6.69;77.35
56241;BME280;42155;53.096;23.226;2022-11-15T07:47:32;99969.72;;;6.77;77.60
56241;BME280;42155;53.096;23.226;2022-11-15T07:49:32;99986.75;;;6.85;77.67
56241;BME280;42155;53.096;23.226;2022-11-15T07:51:32;99981.34;;;6.87;77.78
56241;BME280;42155;53.096;23.226;2022-11-15T07:53:33;99979.56;;;6.87;77.95
56241;BME280;42155;53.096;23.226;2022-11-15T07:55:33;99979.47;;;6.89;77.49
56241;BME280;42155;53.096;23.226;2022-11-15T07:57:33;99977.56;;;6.91;77.60
56241;BME280;42155;53.096;23.226;2022-11-15T07:59:34;99952.75;;;6.81;77.52
56241;BME280;42155;53.096;23.226;2022-11-15T08:01:34;99959.41;;;6.86;77.55
56241;BME280;42155;53.096;23.226;2022-11-15T08:03:35;99962.41;;;6.95;77.91
56241;BME280;42155;53.096;23.226;2022-11-15T08:05:36;99963.25;;;6.95;77.86
56241;BME280;42155;53.096;23.226;2022-11-15T08:07:37;99949.09;;;6.96;77.89
56241;BME280;42155;53.096;23.226;2022-11-15T08:09:37;99948.69;;;7.02;77.70
56241;BME280;42155;53.096;23.226;2022-11-15T08:11:38;99946.16;;;7.01;77.40
56241;BME280;42155;53.096;23.226;2022-11-15T08:13:38;99876.31;;;6.67;77.50
56241;BME280;42155;53.096;23.226;2022-11-15T08:15:38;99950.41;;;7.03;77.19
56241;BME280;42155;53.096;23.226;2022-11-15T08:17:39;99919.53;;;6.91;77.50
56241;BME280;42155;53.096;23.226;2022-11-15T08:19:39;99939.84;;;7.03;77.80
56241;BME280;42155;53.096;23.226;2022-11-15T08:21:39;99939.09;;;7.01;77.48
56241;BME280;42155;53.096;23.226;2022-11-15T08:23:40;99935.59;;;7.01;77.25
56241;BME280;42155;53.096;23.226;2022-11-15T08:25:40;99947.00;;;7.01;77.27
56241;BME280;42155;53.096;23.226;2022-11-15T08:27:40;99939.38;;;6.97;77.73
56241;BME280;42155;53.096;23.226;2022-11-15T08:29:44;99933.91;;;7.00;77.42
56241;BME280;42155;53.096;23.226;2022-11-15T08:31:44;99942.38;;;7.05;77.16
56241;BME280;42155;53.096;23.226;2022-11-15T08:33:45;99951.31;;;7.02;77.28
56241;BME280;42155;53.096;23.226;2022-11-15T08:35:45;99940.44;;;6.94;78.02
56241;BME280;42155;53.096;23.226;2022-11-15T08:37:46;99947.53;;;6.94;78.18
56241;BME280;42155;53.096;23.226;2022-11-15T08:39:46;99934.41;;;6.92;77.53
56241;BME280;42155;53.096;23.226;2022-11-15T08:41:47;99940.66;;;6.91;77.91
56241;BME280;42155;53.096;23.226;2022-11-15T08:43:47;99941.69;;;6.88;78.38
56241;BME280;42155;53.096;23.226;2022-11-15T08:45:47;99939.16;;;6.87;78.40
56241;BME280;42155;53.096;23.226;2022-11-15T08:47:48;99947.06;;;6.87;78.03
56241;BME280;42155;53.096;23.226;2022-11-15T08:49:48;99940.84;;;6.88;77.71
56241;BME280;42155;53.096;23.226;2022-11-15T08:51:48;99941.47;;;6.92;77.90
56241;BME280;42155;53.096;23.226;2022-11-15T08:53:49;99938.72;;;6.93;77.94
56241;BME280;42155;53.096;23.226;2022-11-15T08:55:49;99936.84;;;6.95;77.65
56241;BME280;42155;53.096;23.226;2022-11-15T08:57:49;99919.00;;;6.86;77.79
56241;BME280;42155;53.096;23.226;2022-11-15T08:59:50;99934.94;;;6.97;77.48
56241;BME280;42155;53.096;23.226;2022-11-15T09:01:50;99931.16;;;7.01;77.67
56241;BME280;42155;53.096;23.226;2022-11-15T09:03:50;99941.53;;;7.04;78.15
56241;BME280;42155;53.096;23.226;2022-11-15T09:05:58;99935.50;;;7.02;77.75
56241;BME280;42155;53.096;23.226;2022-11-15T09:07:59;99932.84;;;7.02;77.72
56241;BME280;42155;53.096;23.226;2022-11-15T09:09:59;99942.38;;;7.05;77.75
56241;BME280;42155;53.096;23.226;2022-11-15T09:12:00;99937.41;;;7.00;77.56
56241;BME280;42155;53.096;23.226;2022-11-15T09:14:00;99939.38;;;6.97;78.01
56241;BME280;42155;53.096;23.226;2022-11-15T09:16:01;99929.47;;;7.00;78.46
56241;BME280;42155;53.096;23.226;2022-11-15T09:18:01;99938.06;;;7.04;77.97
56241;BME280;42155;53.096;23.226;2022-11-15T09:20:01;99927.19;;;7.08;77.77
56241;BME280;42155;53.096;23.226;2022-11-15T09:22:05;99915.56;;;6.98;78.10
56241;BME280;42155;53.096;23.226;2022-11-15T09:24:05;99922.09;;;7.05;77.62
56241;BME280;42155;53.096;23.226;2022-11-15T09:26:06;99916.81;;;7.05;78.48
56241;BME280;42155;53.096;23.226;2022-11-15T09:28:07;99916.81;;;7.05;78.10
56241;BME280;42155;53.096;23.226;2022-11-15T09:30:08;99916.63;;;7.08;77.95
56241;BME280;42155;53.096;23.226;2022-11-15T09:32:09;99901.41;;;6.99;77.86
56241;BME280;42155;53.096;23.226;2022-11-15T09:34:09;99914.06;;;7.07;77.75
56241;BME280;42155;53.096;23.226;2022-11-15T09:36:10;99913.03;;;7.09;77.99
56241;BME280;42155;53.096;23.226;2022-11-15T09:38:10;99891.69;;;7.00;77.59
56241;BME280;42155;53.096;23.226;2022-11-15T09:40:16;99905.25;;;7.08;78.05
56241;BME280;42155;53.096;23.226;2022-11-15T09:42:42;99895.72;;;7.05;78.32
56241;BME280;42155;53.096;23.226;2022-11-15T09:45:06;99900.47;;;7.00;78.21
56241;BME280;42155;53.096;23.226;2022-11-15T09:49:42;99883.22;;;6.82;78.45
56241;BME280;42155;53.096;23.226;2022-11-15T09:51:45;99900.66;;;6.97;78.48
56241;BME280;42155;53.096;23.226;2022-11-15T09:56:13;99879.78;;;6.94;77.98
56241;BME280;42155;53.096;23.226;2022-11-15T09:58:39;99878.81;;;6.95;77.89
56241;BME280;42155;53.096;23.226;2022-11-15T10:00:44;99886.28;;;6.88;78.38
56241;BME280;42155;53.096;23.226;2022-11-15T10:05:10;99881.88;;;6.89;78.92
56241;BME280;42155;53.096;23.226;2022-11-15T10:09:47;99866.97;;;6.88;78.27
56241;BME280;42155;53.096;23.226;2022-11-15T10:11:48;99870.16;;;6.93;78.48
56241;BME280;42155;53.096;23.226;2022-11-15T10:13:50;99858.53;;;6.83;78.90
56241;BME280;42155;53.096;23.226;2022-11-15T10:15:57;99862.66;;;6.87;78.82
56241;BME280;42155;53.096;23.226;2022-11-15T10:18:14;99849.66;;;6.84;78.64
56241;BME280;42155;53.096;23.226;2022-11-15T10:20:21;99804.91;;;6.57;78.58
56241;BME280;42155;53.096;23.226;2022-11-15T10:24:44;99862.31;;;6.79;79.13
56241;BME280;42155;53.096;23.226;2022-11-15T10:26:48;99855.16;;;6.81;79.25
56241;BME280;42155;53.096;23.226;2022-11-15T10:28:48;99832.97;;;6.71;79.04
56241;BME280;42155;53.096;23.226;2022-11-15T10:30:52;99844.59;;;6.81;79.07
56241;BME280;42155;53.096;23.226;2022-11-15T10:32:53;99852.63;;;6.92;78.72
56241;BME280;42155;53.096;23.226;2022-11-15T10:34:53;99852.44;;;6.95;78.80
56241;BME280;42155;53.096;23.226;2022-11-15T10:36:58;99820.53;;;6.73;78.66
56241;BME280;42155;53.096;23.226;2022-11-15T10:38:59;99849.69;;;6.97;79.18
56241;BME280;42155;53.096;23.226;2022-11-15T10:41:07;99847.81;;;6.99;78.61
56241;BME280;42155;53.096;23.226;2022-11-15T10:45:29;99857.53;;;6.98;78.79
56241;BME280;42155;53.096;23.226;2022-11-15T10:47:31;99826.16;;;6.81;79.09
56241;BME280;42155;53.096;23.226;2022-11-15T10:49:33;99826.22;;;6.79;79.39
56241;BME280;42155;53.096;23.226;2022-11-15T10:51:44;99848.00;;;6.96;79.10
56241;BME280;42155;53.096;23.226;2022-11-15T10:53:46;99849.50;;;7.00;79.19
56241;BME280;42155;53.096;23.226;2022-11-15T10:55:48;99847.16;;;6.95;79.10
56241;BME280;42155;53.096;23.226;2022-11-15T10:58:04;99843.38;;;6.99;78.98
56241;BME280;42155;53.096;23.226;2022-11-15T11:00:27;99843.38;;;6.99;79.23
56241;BME280;42155;53.096;23.226;2022-11-15T11:04:49;99827.00;;;6.94;78.83
56241;BME280;42155;53.096;23.226;2022-11-15T11:06:59;99839.47;;;7.05;79.20
56241;BME280;42155;53.096;23.226;2022-11-15T11:09:03;99828.25;;;7.01;79.25
56241;BME280;42155;53.096;23.226;2022-11-15T11:11:05;99834.63;;;6.99;78.86
56241;BME280;42155;53.096;23.226;2022-11-15T11:13:27;99834.09;;;6.94;79.29
56241;BME280;42155;53.096;23.226;2022-11-15T11:15:29;99816.13;;;6.86;79.33
56241;BME280;42155;53.096;23.226;2022-11-15T11:17:51;99803.56;;;6.77;79.26
56241;BME280;42155;53.096;23.226;2022-11-15T11:27:25;99817.38;;;6.93;79.32
56241;BME280;42155;53.096;23.226;2022-11-15T11:29:43;99820.97;;;6.92;79.58
56241;BME280;42155;53.096;23.226;2022-11-15T11:34:19;99799.34;;;6.87;79.64
56241;BME280;42155;53.096;23.226;2022-11-15T11:38:48;99800.59;;;6.81;79.75